createdAt,value
2023-05-06T00:00:20.910Z,18.06
2023-05-06T00:02:47.700Z,18.08
2023-05-06T00:05:18.435Z,17.71
2023-05-06T00:07:46.122Z,18.02
2023-05-06T00:10:13.092Z,18.08
2023-05-06T00:12:39.748Z,14.39
2023-05-06T00:15:07.711Z,16.94
2023-05-06T00:17:34.618Z,17.75
2023-05-06T00:20:01.298Z,17.26
2023-05-06T00:22:29.416Z,17.69
2023-05-06T00:24:56.005Z,17.93
2023-05-06T00:27:22.571Z,17.96
2023-05-06T00:29:49.182Z,17.89
2023-05-06T00:32:15.757Z,17.95
2023-05-06T00:34:42.794Z,18.02
2023-05-06T00:37:09.452Z,18.01
2023-05-06T00:39:37.452Z,17.98
2023-05-06T00:42:04.340Z,17.88
2023-05-06T00:44:32.145Z,17.71
2023-05-06T00:47:00.832Z,17.76
2023-05-06T00:49:29.019Z,17.86
2023-05-06T00:51:56.550Z,17.88
2023-05-06T00:54:24.765Z,17.78
2023-05-06T00:56:52.977Z,17.74
2023-05-06T00:59:19.872Z,17.77
2023-05-06T01:01:47.145Z,17.70
2023-05-06T01:04:13.767Z,17.78
2023-05-06T01:06:48.127Z,17.72
2023-05-06T01:09:20.709Z,17.71
2023-05-06T01:11:52.796Z,17.72
2023-05-06T01:14:28.895Z,17.42
2023-05-06T01:17:00.169Z,15.29
2023-05-06T01:19:38.873Z,15.45
2023-05-06T01:22:07.256Z,13.70
2023-05-06T01:24:39.826Z,16.86
2023-05-06T01:27:06.771Z,17.35
2023-05-06T01:29:35.519Z,17.44
2023-05-06T01:32:13.331Z,17.27
2023-05-06T01:34:46.332Z,17.47
2023-05-06T01:37:22.058Z,17.46
2023-05-06T01:39:51.599Z,17.49
2023-05-06T01:42:18.935Z,17.44
2023-05-06T01:44:48.620Z,17.37
2023-05-06T01:47:15.798Z,17.43
2023-05-06T01:49:42.761Z,17.46
2023-05-06T01:52:09.373Z,17.50
2023-05-06T01:54:36.071Z,17.39
2023-05-06T01:57:04.092Z,17.33
2023-05-06T01:59:30.691Z,17.36
2023-05-06T02:01:57.360Z,17.35
2023-05-06T02:04:24.007Z,14.43
2023-05-06T02:06:50.768Z,13.35
2023-05-06T02:09:17.400Z,14.17
2023-05-06T02:11:43.985Z,12.11
2023-05-06T02:14:11.989Z,15.40
2023-05-06T02:16:38.647Z,16.71
2023-05-06T02:19:06.358Z,16.94
2023-05-06T02:21:33.107Z,17.02
2023-05-06T02:23:59.716Z,17.05
2023-05-06T02:26:26.546Z,17.07
2023-05-06T02:28:53.128Z,16.97
2023-05-06T02:31:21.139Z,16.97
2023-05-06T02:33:47.929Z,16.93
2023-05-06T02:36:14.839Z,17.04
2023-05-06T02:38:41.478Z,16.93
2023-05-06T02:41:08.077Z,16.96
2023-05-06T02:43:34.816Z,16.98
2023-05-06T02:46:01.493Z,16.95
2023-05-06T02:48:29.620Z,16.94
2023-05-06T02:50:56.230Z,16.99
2023-05-06T02:53:22.816Z,16.98
2023-05-06T02:55:49.402Z,13.70
2023-05-06T02:58:16.074Z,16.02
2023-05-06T03:00:42.665Z,15.97
2023-05-06T03:03:09.870Z,12.96
2023-05-06T03:05:37.781Z,13.19
2023-05-06T03:08:04.777Z,15.38
2023-05-06T03:10:31.389Z,13.77
2023-05-06T03:12:57.964Z,15.40
2023-05-06T03:15:24.526Z,15.72
2023-05-06T03:17:51.137Z,14.50
2023-05-06T03:20:17.744Z,12.77
2023-05-06T03:22:45.688Z,15.17
2023-05-06T03:25:12.500Z,16.20
2023-05-06T03:27:39.274Z,16.37
2023-05-06T03:30:07.067Z,16.39
2023-05-06T03:32:33.792Z,16.39
2023-05-06T03:35:00.578Z,16.35
2023-05-06T03:37:27.128Z,16.33
2023-05-06T03:39:54.984Z,16.41
2023-05-06T03:42:21.680Z,16.39
2023-05-06T03:44:48.223Z,16.43
2023-05-06T03:47:14.785Z,15.36
2023-05-06T03:49:41.313Z,16.18
2023-05-06T03:52:08.066Z,16.31
2023-05-06T03:54:34.637Z,16.34
2023-05-06T03:57:02.527Z,16.35
2023-05-06T03:59:29.077Z,16.39
2023-05-06T04:01:56.326Z,12.45
2023-05-06T04:04:23.122Z,13.36
2023-05-06T04:06:49.776Z,12.24
2023-05-06T04:09:16.362Z,13.82
2023-05-06T04:11:42.953Z,15.68
2023-05-06T04:14:10.962Z,15.95
2023-05-06T04:16:37.637Z,16.03
2023-05-06T04:19:06.491Z,12.01
2023-05-06T04:21:33.338Z,14.45
2023-05-06T04:23:59.957Z,15.13
2023-05-06T04:26:26.546Z,10.68
2023-05-06T04:28:53.178Z,12.99
2023-05-06T04:31:21.248Z,14.51
2023-05-06T04:33:47.867Z,13.28
2023-05-06T04:36:14.523Z,15.30
2023-05-06T04:38:41.783Z,14.86
2023-05-06T04:41:08.472Z,15.52
2023-05-06T04:43:35.168Z,15.52
2023-05-06T04:46:02.271Z,15.70
2023-05-06T04:48:30.289Z,15.75
2023-05-06T04:50:56.981Z,15.74
2023-05-06T04:53:23.602Z,12.22
2023-05-06T04:55:50.265Z,12.90
2023-05-06T04:58:16.962Z,12.38
2023-05-06T05:00:43.589Z,15.01
2023-05-06T05:03:10.355Z,13.88
2023-05-06T05:05:38.529Z,12.75
2023-05-06T05:08:05.759Z,15.15
2023-05-06T05:10:32.404Z,15.40
2023-05-06T05:12:59.106Z,15.48
2023-05-06T05:15:25.795Z,15.51
2023-05-06T05:17:52.451Z,15.53
2023-05-06T05:20:19.103Z,15.57
2023-05-06T05:22:47.038Z,15.18
2023-05-06T05:25:14.217Z,15.47
2023-05-06T05:27:42.263Z,15.50
2023-05-06T05:30:09.842Z,15.59
2023-05-06T05:32:36.617Z,15.14
2023-05-06T05:35:03.591Z,15.47
2023-05-06T05:37:31.111Z,13.28
2023-05-06T05:39:59.085Z,12.57
2023-05-06T05:42:25.663Z,14.12
2023-05-06T05:44:52.633Z,15.07
2023-05-06T05:47:19.256Z,15.32
2023-05-06T05:49:45.842Z,15.40
2023-05-06T05:52:12.506Z,14.48
2023-05-06T05:54:39.098Z,13.00
2023-05-06T05:57:07.062Z,14.13
2023-05-06T05:59:33.812Z,14.04
2023-05-06T06:02:00.378Z,15.03
2023-05-06T06:04:27.086Z,13.66
2023-05-06T06:06:53.835Z,14.33
2023-05-06T06:09:20.733Z,14.11
2023-05-06T06:11:47.380Z,14.86
2023-05-06T06:14:15.384Z,15.57
2023-05-06T06:16:42.200Z,15.47
2023-05-06T06:19:09.018Z,15.80
2023-05-06T06:21:35.963Z,16.23
2023-05-06T06:24:02.712Z,16.42
2023-05-06T06:26:29.318Z,15.93
2023-05-06T06:28:55.912Z,16.02
2023-05-06T06:31:23.878Z,16.50
2023-05-06T06:33:50.584Z,16.00
2023-05-06T06:36:17.245Z,16.25
2023-05-06T06:38:43.858Z,16.15
2023-05-06T06:41:10.572Z,15.90
2023-05-06T06:43:37.296Z,15.59
2023-05-06T06:46:04.008Z,14.58
2023-05-06T06:48:31.976Z,13.87
2023-05-06T06:50:58.581Z,13.79
2023-05-06T06:53:25.270Z,14.55
2023-05-06T06:55:51.890Z,13.52
2023-05-06T06:58:18.520Z,13.93
2023-05-06T07:00:45.425Z,15.18
2023-05-06T07:03:15.484Z,15.17
2023-05-06T07:05:44.182Z,14.75
2023-05-06T07:08:11.238Z,15.03
2023-05-06T07:10:37.921Z,14.57
2023-05-06T07:13:04.550Z,15.30
2023-05-06T07:15:31.220Z,14.72
2023-05-06T07:17:57.904Z,15.15
2023-05-06T07:20:24.565Z,15.36
2023-05-06T07:22:52.547Z,16.68
2023-05-06T07:25:19.374Z,17.04
2023-05-06T07:27:46.158Z,16.83
2023-05-06T07:30:13.474Z,17.44
2023-05-06T07:32:41.341Z,16.23
2023-05-06T07:35:09.189Z,15.71
2023-05-06T07:37:36.224Z,15.75
2023-05-06T07:40:05.161Z,17.50
2023-05-06T07:42:31.782Z,16.76
2023-05-06T07:44:58.401Z,16.46
2023-05-06T07:47:31.339Z,16.17
2023-05-06T07:49:58.840Z,16.10
2023-05-06T07:52:26.087Z,16.01
2023-05-06T07:54:53.297Z,16.21
2023-05-06T07:57:21.360Z,17.06
2023-05-06T07:59:48.960Z,16.32
2023-05-06T08:02:16.127Z,16.75
2023-05-06T08:04:43.169Z,16.26
2023-05-06T08:07:10.382Z,16.02
2023-05-06T08:09:37.033Z,17.54
2023-05-06T08:12:04.001Z,17.26
2023-05-06T08:14:31.883Z,18.48
2023-05-06T08:16:58.500Z,18.12
2023-05-06T08:19:25.105Z,17.98
2023-05-06T08:21:51.877Z,17.74
2023-05-06T08:24:18.580Z,18.11
2023-05-06T08:26:45.216Z,17.18
2023-05-06T08:29:11.783Z,16.57
2023-05-06T08:31:39.810Z,16.15
2023-05-06T08:34:06.392Z,17.42
2023-05-06T08:36:32.965Z,15.99
2023-05-06T08:38:59.512Z,16.10
2023-05-06T08:41:27.392Z,16.16
2023-05-06T08:43:55.006Z,16.47
2023-05-06T08:46:21.834Z,16.98
2023-05-06T08:48:49.805Z,16.73
2023-05-06T08:51:16.834Z,16.97
2023-05-06T08:53:48.404Z,15.96
2023-05-06T08:56:16.516Z,16.21
2023-05-06T08:58:45.649Z,16.19
2023-05-06T09:01:12.430Z,15.37
2023-05-06T09:03:39.106Z,15.13
2023-05-06T09:06:07.309Z,15.46
2023-05-06T09:08:33.921Z,16.02
2023-05-06T09:11:00.601Z,16.25
2023-05-06T09:13:27.362Z,16.68
2023-05-06T09:15:55.233Z,16.20
2023-05-06T09:18:22.678Z,15.78
2023-05-06T09:20:49.864Z,16.01
2023-05-06T09:23:18.453Z,15.72
2023-05-06T09:25:46.755Z,15.77
2023-05-06T09:28:14.442Z,15.52
2023-05-06T09:30:42.607Z,16.07
2023-05-06T09:33:09.841Z,15.84
2023-05-06T09:35:38.260Z,16.07
2023-05-06T09:38:07.046Z,15.89
2023-05-06T09:40:35.994Z,16.04
2023-05-06T09:43:03.428Z,16.73
2023-05-06T09:45:30.750Z,17.68
2023-05-06T09:47:58.616Z,17.44
2023-05-06T09:50:26.404Z,16.61
2023-05-06T09:52:54.819Z,16.60
2023-05-06T09:55:23.042Z,16.72
2023-05-06T09:57:51.241Z,16.49
2023-05-06T10:00:18.857Z,17.13
2023-05-06T10:02:47.768Z,18.92
2023-05-06T10:05:14.959Z,17.71
2023-05-06T10:07:42.293Z,17.29
2023-05-06T10:10:14.226Z,16.75
2023-05-06T10:12:43.035Z,16.72
2023-05-06T10:15:12.157Z,16.65
2023-05-06T10:17:41.711Z,17.95
2023-05-06T10:20:09.269Z,17.16
2023-05-06T10:22:43.872Z,16.97
2023-05-06T10:25:19.258Z,17.37
2023-05-06T10:27:46.722Z,18.27
2023-05-06T10:30:17.151Z,17.55
2023-05-06T10:32:44.882Z,18.16
2023-05-06T10:35:32.130Z,17.45
2023-05-06T10:38:02.607Z,17.68
2023-05-06T10:40:29.549Z,17.46
2023-05-06T10:43:21.205Z,17.86
2023-05-06T10:46:01.488Z,17.95
2023-05-06T10:48:28.671Z,20.16
2023-05-06T10:51:32.060Z,20.03
2023-05-06T10:54:03.683Z,18.41
2023-05-06T10:56:32.136Z,17.31
2023-05-06T10:59:04.064Z,17.54
2023-05-06T11:01:32.216Z,17.23
2023-05-06T11:04:04.636Z,17.39
2023-05-06T11:06:36.194Z,17.73
2023-05-06T11:09:04.292Z,19.16
2023-05-06T11:11:50.974Z,19.57
2023-05-06T11:14:29.933Z,20.52
2023-05-06T11:16:59.987Z,21.27
2023-05-06T11:19:28.445Z,18.36
2023-05-06T11:21:57.498Z,18.57
2023-05-06T11:24:26.851Z,18.24
2023-05-06T11:26:54.274Z,18.74
2023-05-06T11:29:21.773Z,19.18
2023-05-06T11:31:49.591Z,18.80
2023-05-06T11:34:23.977Z,20.48
2023-05-06T11:36:58.900Z,20.71
2023-05-06T11:39:30.358Z,19.00
2023-05-06T11:41:59.029Z,20.71
2023-05-06T11:44:30.419Z,20.53
2023-05-06T11:47:01.628Z,21.30
2023-05-06T11:49:30.068Z,20.60
2023-05-06T11:51:57.170Z,20.66
2023-05-06T11:54:26.281Z,20.62
2023-05-06T11:56:54.267Z,20.23
2023-05-06T11:59:29.691Z,20.16
2023-05-06T12:01:58.036Z,19.64
2023-05-06T12:04:24.727Z,19.54
2023-05-06T12:06:55.331Z,19.62
2023-05-06T12:09:22.769Z,19.88
2023-05-06T12:11:50.258Z,20.29
2023-05-06T12:14:17.319Z,20.11
2023-05-06T12:16:44.152Z,20.35
2023-05-06T12:19:10.889Z,20.40
2023-05-06T12:21:38.621Z,20.44
2023-05-06T12:24:07.075Z,20.27
2023-05-06T12:26:47.684Z,20.42
2023-05-06T12:29:19.603Z,19.97
2023-05-06T12:31:47.269Z,19.78
2023-05-06T12:34:14.636Z,19.60
2023-05-06T12:36:42.998Z,19.32
2023-05-06T12:39:14.134Z,19.30
2023-05-06T12:41:42.682Z,19.23
2023-05-06T12:44:34.501Z,19.07
2023-05-06T12:47:02.692Z,18.93
2023-05-06T12:49:45.373Z,18.89
2023-05-06T12:52:12.480Z,18.84
2023-05-06T12:54:40.426Z,18.85
2023-05-06T12:57:07.522Z,18.83
2023-05-06T12:59:36.154Z,18.77
2023-05-06T13:02:02.821Z,18.85
2023-05-06T13:04:29.490Z,18.84
2023-05-06T13:06:57.013Z,18.83
2023-05-06T13:09:23.992Z,18.89
2023-05-06T13:11:51.974Z,18.84
2023-05-06T13:14:18.602Z,18.80
2023-05-06T13:16:45.604Z,18.76
2023-05-06T13:19:18.159Z,18.83
2023-05-06T13:21:51.453Z,18.72
2023-05-06T13:24:18.074Z,18.78
2023-05-06T13:26:44.894Z,18.77
2023-05-06T13:29:12.799Z,18.76
2023-05-06T13:31:40.196Z,18.69
2023-05-06T13:34:06.793Z,18.65
2023-05-06T13:36:33.359Z,18.68
2023-05-06T13:39:00.510Z,18.74
2023-05-06T13:41:27.086Z,18.71
2023-05-06T13:43:53.682Z,18.46
2023-05-06T13:46:23.109Z,18.32
2023-05-06T13:48:49.819Z,18.47
2023-05-06T13:51:16.387Z,18.46
2023-05-06T13:53:43.045Z,18.51
2023-05-06T13:56:09.670Z,18.49
2023-05-06T13:58:36.327Z,18.51
2023-05-06T14:01:03.605Z,18.53
2023-05-06T14:03:31.596Z,18.56
2023-05-06T14:05:58.259Z,18.59
2023-05-06T14:08:24.942Z,18.59
2023-05-06T14:10:51.541Z,18.58
2023-05-06T14:13:18.149Z,18.58
2023-05-06T14:15:44.821Z,18.57
2023-05-06T14:18:11.619Z,18.57
2023-05-06T14:20:39.598Z,18.56
2023-05-06T14:23:06.905Z,18.57
2023-05-06T14:25:33.758Z,18.55
2023-05-06T14:28:00.517Z,18.55
2023-05-06T14:30:27.329Z,18.54
2023-05-06T14:32:54.134Z,18.55
2023-05-06T14:35:21.198Z,18.51
2023-05-06T14:37:49.167Z,18.80
2023-05-06T14:40:16.971Z,18.64
2023-05-06T14:42:44.018Z,18.29
2023-05-06T14:45:11.735Z,18.48
2023-05-06T14:47:38.873Z,18.55
2023-05-06T14:50:08.933Z,18.57
2023-05-06T14:52:36.265Z,18.47
2023-05-06T14:55:07.323Z,18.50
2023-05-06T14:57:34.383Z,18.56
2023-05-06T15:00:02.636Z,18.57
2023-05-06T15:02:29.270Z,18.58
2023-05-06T15:04:55.990Z,18.58
2023-05-06T15:07:22.711Z,18.41
2023-05-06T15:09:49.346Z,18.52
2023-05-06T15:12:17.293Z,18.60
2023-05-06T15:14:43.989Z,18.57
2023-05-06T15:17:10.754Z,18.50
2023-05-06T15:19:37.728Z,18.37
2023-05-06T15:22:04.469Z,18.21
2023-05-06T15:24:31.181Z,18.24
2023-05-06T15:26:57.883Z,18.42
2023-05-06T15:29:26.179Z,18.59
2023-05-06T15:31:53.013Z,18.54
2023-05-06T15:34:20.692Z,18.54
2023-05-06T15:36:54.231Z,18.51
2023-05-06T15:39:22.213Z,18.48
2023-05-06T15:41:48.945Z,18.58
2023-05-06T15:44:16.313Z,18.54
2023-05-06T15:46:44.604Z,18.26
2023-05-06T15:51:40.837Z,18.13
2023-05-06T15:54:07.543Z,18.31
2023-05-06T15:56:39.434Z,18.28
2023-05-06T15:59:08.296Z,18.53
2023-05-06T16:02:04.632Z,18.58
2023-05-06T16:04:23.574Z,18.09
2023-05-06T16:06:50.373Z,17.87
2023-05-06T16:09:16.988Z,18.20
2023-05-06T16:11:43.638Z,18.06
2023-05-06T16:14:10.289Z,17.83
2023-05-06T16:16:37.347Z,17.97
2023-05-06T16:19:04.453Z,18.00
2023-05-06T16:21:32.468Z,17.93
2023-05-06T16:24:00.788Z,18.15
2023-05-06T16:26:27.410Z,18.00
2023-05-06T16:28:54.121Z,18.13
2023-05-06T16:31:21.173Z,18.43
2023-05-06T16:33:47.901Z,18.52
2023-05-06T16:36:14.829Z,18.50
2023-05-06T16:38:43.187Z,18.22
2023-05-06T16:41:09.766Z,18.03
2023-05-06T16:43:36.356Z,17.93
2023-05-06T16:46:02.953Z,18.24
2023-05-06T16:48:29.633Z,18.43
2023-05-06T16:50:56.294Z,18.57
2023-05-06T16:53:22.882Z,18.59
2023-05-06T16:55:50.846Z,18.56
2023-05-06T16:58:17.444Z,18.54
2023-05-06T17:00:44.159Z,18.61
2023-05-06T17:03:11.233Z,18.62
2023-05-06T17:05:38.031Z,18.62
2023-05-06T17:08:05.499Z,18.62
2023-05-06T17:10:32.149Z,18.61
2023-05-06T17:13:00.116Z,18.59
2023-05-06T17:15:26.764Z,18.61
2023-05-06T17:17:53.612Z,18.61
2023-05-06T17:20:20.812Z,18.61
2023-05-06T17:22:47.798Z,18.59
2023-05-06T17:25:14.808Z,18.59
2023-05-06T17:27:41.646Z,18.60
2023-05-06T17:30:10.333Z,18.59
2023-05-06T17:32:37.229Z,18.59
2023-05-06T17:35:04.638Z,18.58
2023-05-06T17:37:31.452Z,18.57
2023-05-06T17:39:58.031Z,18.58
2023-05-06T17:42:24.710Z,18.58
2023-05-06T17:44:51.309Z,18.57
2023-05-06T17:47:22.664Z,18.58
2023-05-06T17:49:50.577Z,18.58
2023-05-06T17:52:17.754Z,18.60
2023-05-06T17:54:44.361Z,18.60
2023-05-06T17:57:10.933Z,18.60
2023-05-06T17:59:37.581Z,18.59
2023-05-06T18:02:04.522Z,18.60
2023-05-06T18:04:32.567Z,18.61
2023-05-06T18:06:59.110Z,18.62
2023-05-06T18:09:25.840Z,18.61
2023-05-06T18:11:52.421Z,18.61
2023-05-06T18:14:19.049Z,18.61
2023-05-06T18:16:45.784Z,18.60
2023-05-06T18:19:12.542Z,18.61
2023-05-06T18:21:40.618Z,18.61
2023-05-06T18:24:15.933Z,18.62
2023-05-06T18:26:45.728Z,18.62
2023-05-06T18:29:12.879Z,18.62
2023-05-06T18:31:39.531Z,18.60
2023-05-06T18:34:06.310Z,18.61
2023-05-06T18:36:34.832Z,18.61
2023-05-06T18:39:02.824Z,18.62
2023-05-06T18:41:29.379Z,18.61
2023-05-06T18:43:55.946Z,18.61
2023-05-06T18:46:22.605Z,18.61
2023-05-06T18:48:49.280Z,18.59
2023-05-06T18:51:17.340Z,18.57
2023-05-06T18:53:44.833Z,18.58
2023-05-06T18:56:13.501Z,18.61
2023-05-06T18:58:40.673Z,18.60
2023-05-06T19:01:09.188Z,18.60
2023-05-06T19:03:37.101Z,18.60
2023-05-06T19:06:09.073Z,18.50
2023-05-06T19:08:36.727Z,18.56
2023-05-06T19:11:03.381Z,18.59
2023-05-06T19:13:31.545Z,18.58
2023-05-06T19:15:58.098Z,18.58
2023-05-06T19:18:24.663Z,18.32
2023-05-06T19:20:52.019Z,17.94
2023-05-06T19:23:20.071Z,18.44
2023-05-06T19:25:46.740Z,18.50
2023-05-06T19:28:13.410Z,18.51
2023-05-06T19:30:41.345Z,18.52
2023-05-06T19:33:08.017Z,18.54
2023-05-06T19:35:37.198Z,18.52
2023-05-06T19:38:04.571Z,18.54
2023-05-06T19:40:31.127Z,18.49
2023-05-06T19:43:03.635Z,18.48
2023-05-06T19:45:31.029Z,18.45
2023-05-06T19:47:59.053Z,18.44
2023-05-06T19:50:26.978Z,18.48
2023-05-06T19:52:53.530Z,18.49
2023-05-06T19:55:20.715Z,18.50
2023-05-06T19:57:47.319Z,18.46
2023-05-06T20:00:18.129Z,18.46
2023-05-06T20:02:45.367Z,17.27
2023-05-06T20:05:13.786Z,16.58
2023-05-06T20:07:41.243Z,18.08
2023-05-06T20:10:09.928Z,18.29
2023-05-06T20:12:36.523Z,18.33
2023-05-06T20:15:06.937Z,18.33
2023-05-06T20:17:34.592Z,18.35
2023-05-06T20:20:02.789Z,18.35
2023-05-06T20:22:32.675Z,18.37
2023-05-06T20:25:08.408Z,17.73
2023-05-06T20:27:35.038Z,18.21
2023-05-06T20:30:02.101Z,18.31
2023-05-06T20:32:29.013Z,18.31
2023-05-06T20:34:55.638Z,18.31
2023-05-06T20:37:22.189Z,18.26
2023-05-06T20:39:50.204Z,18.24
2023-05-06T20:42:16.794Z,18.26
2023-05-06T20:44:43.391Z,18.30
2023-05-06T20:47:12.463Z,18.26
2023-05-06T20:49:39.450Z,18.29
2023-05-06T20:52:07.760Z,15.48
2023-05-06T20:54:34.609Z,16.18
2023-05-06T20:57:02.716Z,17.82
2023-05-06T20:59:29.598Z,18.05
2023-05-06T21:01:56.511Z,18.13
2023-05-06T21:04:23.198Z,18.11
2023-05-06T21:06:49.997Z,18.16
2023-05-06T21:09:17.697Z,18.17
2023-05-06T21:11:44.595Z,18.11
2023-05-06T21:14:12.538Z,18.10
2023-05-06T21:16:39.771Z,17.24
2023-05-06T21:19:06.435Z,17.93
2023-05-06T21:21:33.279Z,18.02
2023-05-06T21:24:00.193Z,18.06
2023-05-06T21:26:26.850Z,18.09
2023-05-06T21:28:53.491Z,18.06
2023-05-06T21:31:23.929Z,18.05
2023-05-06T21:33:53.810Z,18.00
2023-05-06T21:36:20.535Z,18.09
2023-05-06T21:38:47.925Z,18.05
2023-05-06T21:41:14.733Z,18.02
2023-05-06T21:43:41.909Z,17.95
2023-05-06T21:46:08.556Z,17.95
2023-05-06T21:48:36.530Z,17.98
2023-05-06T21:51:03.615Z,18.01
2023-05-06T21:53:30.453Z,18.02
2023-05-06T21:55:57.481Z,17.87
2023-05-06T21:58:24.061Z,17.84
2023-05-06T22:00:50.699Z,16.57
2023-05-06T22:03:17.351Z,17.33
2023-05-06T22:05:45.578Z,16.98
2023-05-06T22:08:12.183Z,17.65
2023-05-06T22:10:38.803Z,17.77
2023-05-06T22:13:05.548Z,17.76
2023-05-06T22:15:32.166Z,17.83
2023-05-06T22:17:59.135Z,17.55
2023-05-06T22:20:25.853Z,17.68
2023-05-06T22:22:54.169Z,17.79
2023-05-06T22:25:21.018Z,17.79
2023-05-06T22:27:47.729Z,17.68
2023-05-06T22:30:16.278Z,17.71
2023-05-06T22:32:42.992Z,17.77
2023-05-06T22:35:09.935Z,17.79
2023-05-06T22:37:36.736Z,14.14
2023-05-06T22:40:07.901Z,16.38
2023-05-06T22:42:34.569Z,17.35
2023-05-06T22:45:01.626Z,17.54
2023-05-06T22:47:28.208Z,17.55
2023-05-06T22:49:54.811Z,17.59
2023-05-06T22:52:21.418Z,16.04
2023-05-06T22:54:48.051Z,13.01
2023-05-06T22:57:16.314Z,12.35
2023-05-06T22:59:42.945Z,15.67
2023-05-06T23:02:09.525Z,16.94
2023-05-06T23:04:36.181Z,17.19
2023-05-06T23:07:02.879Z,17.29
2023-05-06T23:09:29.467Z,17.34
2023-05-06T23:11:56.045Z,16.77
2023-05-06T23:14:24.072Z,17.25
2023-05-06T23:16:50.701Z,17.30
2023-05-06T23:19:17.381Z,17.28
2023-05-06T23:21:44.437Z,17.27
2023-05-06T23:24:11.697Z,17.30
2023-05-06T23:26:38.308Z,17.29
2023-05-06T23:29:05.036Z,17.35
2023-05-06T23:31:33.055Z,17.35
2023-05-06T23:33:59.669Z,17.36
2023-05-06T23:36:27.239Z,17.33
2023-05-06T23:38:53.823Z,17.27
2023-05-06T23:41:21.317Z,17.32
2023-05-06T23:43:47.900Z,17.35
2023-05-06T23:46:14.560Z,15.06
2023-05-06T23:48:42.638Z,16.16
2023-05-06T23:51:09.242Z,16.25
2023-05-06T23:53:36.089Z,16.79
2023-05-06T23:56:02.880Z,17.06
2023-05-06T23:58:29.489Z,14.86
